createdAt,value
2022-09-09T00:02:08.729Z,8.93
2022-09-09T00:05:07.303Z,8.67
2022-09-09T00:08:02.169Z,8.70
2022-09-09T00:11:01.004Z,8.60
2022-09-09T00:13:55.975Z,8.73
2022-09-09T00:16:51.597Z,8.80
2022-09-09T00:19:51.432Z,8.70
2022-09-09T00:22:48.492Z,8.63
2022-09-09T00:25:48.799Z,8.73
2022-09-09T00:28:55.153Z,8.57
2022-09-09T00:31:44.628Z,8.60
2022-09-09T00:34:35.461Z,8.43
2022-09-09T00:37:29.060Z,8.70
2022-09-09T00:40:29.216Z,8.80
2022-09-09T00:43:31.074Z,8.60
2022-09-09T00:46:47.269Z,8.93
2022-09-09T00:49:47.588Z,8.73
2022-09-09T00:52:49.481Z,8.70
2022-09-09T00:55:49.017Z,8.70
2022-09-09T00:58:38.414Z,8.60
2022-09-09T01:01:29.583Z,8.70
2022-09-09T01:04:28.011Z,8.60
2022-09-09T01:07:20.442Z,8.63
2022-09-09T01:10:19.848Z,8.50
2022-09-09T01:13:18.889Z,8.70
2022-09-09T01:16:13.395Z,8.37
2022-09-09T01:19:10.858Z,8.70
2022-09-09T01:22:10.338Z,8.90
2022-09-09T01:25:31.599Z,8.87
2022-09-09T01:28:38.206Z,8.70
2022-09-09T01:31:38.658Z,8.93
2022-09-09T01:34:32.962Z,8.90
2022-09-09T01:37:22.411Z,8.70
2022-09-09T01:40:12.090Z,8.70
2022-09-09T01:43:02.407Z,8.50
2022-09-09T01:45:57.420Z,8.50
2022-09-09T01:48:48.267Z,8.70
2022-09-09T01:51:40.031Z,8.77
2022-09-09T01:54:35.037Z,9.10
2022-09-09T01:57:35.969Z,8.97
2022-09-09T02:00:25.825Z,8.67
2022-09-09T02:03:26.890Z,9.00
2022-09-09T02:06:40.097Z,8.83
2022-09-09T02:09:44.123Z,8.70
2022-09-09T02:12:33.753Z,8.67
2022-09-09T02:15:34.768Z,8.40
2022-09-09T02:18:30.494Z,8.60
2022-09-09T02:21:20.863Z,8.70
2022-09-09T02:24:11.990Z,8.63
2022-09-09T02:27:11.161Z,8.70
2022-09-09T02:30:03.625Z,8.70
2022-09-09T02:33:03.255Z,8.80
2022-09-09T02:36:11.117Z,8.67
2022-09-09T02:39:00.525Z,8.70
2022-09-09T02:41:52.534Z,8.60
2022-09-09T02:44:49.694Z,8.60
2022-09-09T02:47:45.961Z,8.53
2022-09-09T02:50:43.259Z,8.30
2022-09-09T02:53:44.565Z,8.60
2022-09-09T02:56:39.778Z,8.80
2022-09-09T02:59:30.292Z,8.67
2022-09-09T03:02:20.529Z,8.80
2022-09-09T03:05:15.139Z,8.50
2022-09-09T03:08:05.099Z,8.37
2022-09-09T03:10:56.960Z,8.53
2022-09-09T03:13:49.908Z,8.60
2022-09-09T03:16:39.729Z,8.50
2022-09-09T03:19:30.987Z,8.53
2022-09-09T03:22:20.556Z,8.50
2022-09-09T03:25:10.795Z,8.50
2022-09-09T03:28:02.836Z,8.47
2022-09-09T03:30:52.372Z,8.60
2022-09-09T03:33:43.327Z,8.60
2022-09-09T03:36:35.639Z,8.53
2022-09-09T03:39:25.470Z,8.87
2022-09-09T03:42:19.675Z,8.60
2022-09-09T03:45:13.076Z,8.67
2022-09-09T03:48:06.230Z,8.60
2022-09-09T03:50:58.852Z,8.60
2022-09-09T03:53:48.727Z,8.60
2022-09-09T03:56:38.973Z,8.63
2022-09-09T03:59:28.302Z,8.53
2022-09-09T04:02:19.219Z,8.83
2022-09-09T04:05:09.870Z,8.80
2022-09-09T04:08:00.710Z,8.50
2022-09-09T04:10:50.928Z,8.60
2022-09-09T04:13:41.330Z,8.50
2022-09-09T04:16:33.596Z,8.70
2022-09-09T04:19:24.373Z,8.60
2022-09-09T04:22:13.840Z,8.50
2022-09-09T04:25:03.132Z,8.60
2022-09-09T04:27:57.294Z,8.63
2022-09-09T04:30:48.305Z,8.70
2022-09-09T04:33:40.508Z,8.30
2022-09-09T04:36:32.768Z,8.57
2022-09-09T04:39:25.695Z,8.70
2022-09-09T04:42:15.077Z,8.50
2022-09-09T04:45:07.332Z,8.60
2022-09-09T04:47:56.933Z,8.63
2022-09-09T04:50:56.129Z,8.50
2022-09-09T04:53:47.873Z,8.50
2022-09-09T04:56:37.398Z,8.60
2022-09-09T04:59:26.969Z,8.57
2022-09-09T05:02:19.598Z,8.50
2022-09-09T05:05:09.597Z,8.40
2022-09-09T05:08:04.703Z,8.87
2022-09-09T05:10:56.142Z,8.50
2022-09-09T05:13:46.188Z,8.70
2022-09-09T05:16:35.759Z,12.67
2022-09-09T05:19:25.530Z,12.67
2022-09-09T05:22:22.415Z,11.00
2022-09-09T05:25:12.618Z,10.03
2022-09-09T05:28:04.441Z,9.60
2022-09-09T05:31:01.586Z,9.23
2022-09-09T05:33:53.303Z,9.13
2022-09-09T05:36:43.100Z,8.53
2022-09-09T05:39:34.018Z,9.43
2022-09-09T05:42:23.432Z,8.97
2022-09-09T05:45:14.272Z,8.50
2022-09-09T05:48:04.223Z,8.67
2022-09-09T05:50:56.694Z,8.80
2022-09-09T05:53:47.646Z,8.63
2022-09-09T05:56:37.254Z,8.40
2022-09-09T05:59:26.616Z,10.07
2022-09-09T06:02:20.140Z,9.37
2022-09-09T06:05:11.791Z,9.37
2022-09-09T06:08:01.538Z,8.73
2022-09-09T06:10:51.022Z,8.63
2022-09-09T06:13:41.195Z,8.50
2022-09-09T06:16:33.798Z,8.67
2022-09-09T06:19:27.921Z,8.60
2022-09-09T06:22:19.874Z,8.77
2022-09-09T06:25:11.859Z,9.10
2022-09-09T06:28:03.320Z,8.43
2022-09-09T06:31:00.898Z,8.50
2022-09-09T06:33:53.217Z,8.37
2022-09-09T06:36:45.150Z,8.40
2022-09-09T06:39:35.239Z,8.30
2022-09-09T06:42:24.795Z,8.40
2022-09-09T06:45:40.045Z,8.40
2022-09-09T06:48:31.459Z,8.20
2022-09-09T06:51:24.067Z,8.10
2022-09-09T06:54:15.236Z,8.30
2022-09-09T06:57:33.663Z,8.10
2022-09-09T07:00:19.970Z,7.90
2022-09-09T07:03:09.454Z,8.00
2022-09-09T07:06:00.200Z,7.90
2022-09-09T07:08:56.607Z,7.80
2022-09-09T07:11:53.805Z,7.70
2022-09-09T07:14:44.902Z,7.90
2022-09-09T07:17:34.244Z,8.10
2022-09-09T07:20:23.639Z,8.13
2022-09-09T07:23:13.716Z,8.10
2022-09-09T07:26:03.416Z,8.00
2022-09-09T07:28:54.936Z,8.10
2022-09-09T07:31:45.685Z,8.20
2022-09-09T07:34:39.853Z,8.40
2022-09-09T07:37:29.443Z,8.10
2022-09-09T07:40:18.919Z,8.30
2022-09-09T07:43:08.309Z,8.13
2022-09-09T07:46:03.998Z,8.40
2022-09-09T07:48:56.789Z,8.40
2022-09-09T07:51:50.748Z,8.33
2022-09-09T07:54:41.445Z,8.20
2022-09-09T07:57:31.825Z,8.40
2022-09-09T08:00:23.193Z,8.27
2022-09-09T08:03:17.993Z,8.50
2022-09-09T08:06:10.395Z,8.20
2022-09-09T08:08:59.981Z,8.40
2022-09-09T08:11:50.295Z,8.30
2022-09-09T08:14:41.090Z,10.10
2022-09-09T08:17:30.600Z,10.20
2022-09-09T08:20:24.859Z,11.53
2022-09-09T08:23:14.749Z,10.80
2022-09-09T08:26:10.282Z,9.97
2022-09-09T08:29:01.804Z,8.70
2022-09-09T08:31:55.572Z,9.07
2022-09-09T08:34:46.555Z,8.33
2022-09-09T08:37:41.836Z,8.67
2022-09-09T08:40:35.913Z,10.30
2022-09-09T08:43:26.313Z,10.10
2022-09-09T08:46:25.382Z,9.47
2022-09-09T08:49:57.096Z,8.90
2022-09-09T08:52:58.357Z,8.80
2022-09-09T08:55:50.581Z,8.30
2022-09-09T08:58:49.939Z,8.30
2022-09-09T09:02:06.450Z,8.40
2022-09-09T09:05:17.925Z,8.10
2022-09-09T09:08:20.225Z,8.27
2022-09-09T09:11:10.330Z,8.30
2022-09-09T09:14:05.430Z,8.60
2022-09-09T09:17:00.489Z,8.10
2022-09-09T09:19:52.161Z,8.43
2022-09-09T09:22:49.843Z,8.43
2022-09-09T09:25:45.336Z,8.23
2022-09-09T09:28:38.052Z,8.30
2022-09-09T09:31:36.285Z,8.30
2022-09-09T09:34:26.463Z,8.10
2022-09-09T09:37:26.002Z,8.10
2022-09-09T09:40:18.804Z,8.50
2022-09-09T09:43:23.766Z,8.60
2022-09-09T09:46:24.633Z,8.40
2022-09-09T09:49:15.814Z,8.20
2022-09-09T09:52:08.743Z,8.10
2022-09-09T09:55:07.277Z,8.47
2022-09-09T10:01:03.979Z,7.93
2022-09-09T10:03:55.278Z,7.60
2022-09-09T10:06:44.786Z,8.00
2022-09-09T10:09:34.715Z,7.93
2022-09-09T10:12:39.553Z,8.30
2022-09-09T10:15:41.591Z,20.20
2022-09-09T10:19:00.805Z,20.13
2022-09-09T10:22:13.982Z,13.70
2022-09-09T10:25:31.153Z,11.30
2022-09-09T10:29:02.741Z,9.80
2022-09-09T10:32:08.222Z,8.90
2022-09-09T10:35:05.724Z,8.80
2022-09-09T10:38:16.013Z,8.07
2022-09-09T10:41:21.674Z,8.10
2022-09-09T10:44:45.205Z,8.30
2022-09-09T10:47:54.604Z,7.70
2022-09-09T10:51:01.347Z,7.90
2022-09-09T10:54:18.716Z,7.80
2022-09-09T10:57:18.236Z,7.40
2022-09-09T11:00:18.086Z,7.67
2022-09-09T11:03:09.743Z,7.60
2022-09-09T11:06:07.650Z,7.80
2022-09-09T11:09:00.379Z,7.60
2022-09-09T11:11:55.390Z,7.70
2022-09-09T11:14:48.497Z,7.60
2022-09-09T11:17:48.137Z,7.60
2022-09-09T11:20:37.833Z,7.70
2022-09-09T11:23:41.962Z,7.70
2022-09-09T11:26:40.126Z,7.40
2022-09-09T11:30:08.687Z,7.60
2022-09-09T11:33:30.211Z,7.40
2022-09-09T11:36:50.311Z,7.80
2022-09-09T11:40:11.927Z,7.70
2022-09-09T11:43:07.066Z,7.80
2022-09-09T11:46:01.127Z,7.67
2022-09-09T11:49:02.557Z,7.60
2022-09-09T11:51:51.846Z,8.00
2022-09-09T11:54:50.365Z,7.80
2022-09-09T11:57:43.105Z,7.80
2022-09-09T12:00:39.408Z,7.70
2022-09-09T12:03:44.147Z,7.80
2022-09-09T12:06:35.127Z,7.90
2022-09-09T12:09:32.303Z,8.13
2022-09-09T12:12:30.868Z,8.10
2022-09-09T12:15:29.963Z,8.13
2022-09-09T12:18:26.288Z,8.00
2022-09-09T12:21:28.878Z,8.23
2022-09-09T12:24:28.921Z,8.10
2022-09-09T12:27:25.548Z,8.00
2022-09-09T12:30:18.370Z,7.80
2022-09-09T12:33:15.027Z,8.00
2022-09-09T12:36:08.310Z,7.90
2022-09-09T12:39:01.901Z,8.30
2022-09-09T12:41:58.414Z,8.30
2022-09-09T12:44:55.923Z,9.57
2022-09-09T12:47:50.804Z,10.30
2022-09-09T12:50:48.911Z,9.10
2022-09-09T12:53:39.913Z,8.80
2022-09-09T12:56:33.493Z,8.70
2022-09-09T12:59:27.465Z,8.40
2022-09-09T13:02:23.965Z,8.13
2022-09-09T13:05:19.372Z,8.23
2022-09-09T13:08:13.690Z,8.50
2022-09-09T13:11:07.372Z,8.50
2022-09-09T13:13:59.329Z,8.43
2022-09-09T13:16:59.344Z,8.40
2022-09-09T13:19:51.394Z,8.20
2022-09-09T13:22:42.301Z,8.90
2022-09-09T13:25:37.904Z,8.37
2022-09-09T13:28:33.623Z,8.60
2022-09-09T13:31:28.387Z,8.20
2022-09-09T13:34:30.572Z,8.10
2022-09-09T13:37:26.500Z,26.37
2022-09-09T13:40:22.607Z,22.23
2022-09-09T13:43:23.725Z,16.20
2022-09-09T13:46:35.840Z,13.20
2022-09-09T13:49:26.130Z,11.87
2022-09-09T13:52:17.886Z,10.43
2022-09-09T13:55:09.133Z,9.60
2022-09-09T13:58:01.642Z,9.30
2022-09-09T14:00:52.385Z,8.90
2022-09-09T14:03:41.774Z,8.30
2022-09-09T14:06:33.310Z,8.47
2022-09-09T14:09:23.081Z,8.60
2022-09-09T14:12:14.932Z,8.40
2022-09-09T14:15:04.740Z,8.30
2022-09-09T14:17:55.398Z,8.17
2022-09-09T14:20:45.219Z,8.10
2022-09-09T14:23:34.557Z,8.37
2022-09-09T14:26:24.574Z,8.23
2022-09-09T14:29:13.940Z,8.90
2022-09-09T14:32:03.606Z,14.17
2022-09-09T14:34:54.387Z,14.20
2022-09-09T14:37:44.399Z,12.07
2022-09-09T14:40:34.869Z,10.67
2022-09-09T14:43:24.490Z,9.70
2022-09-09T14:46:16.415Z,9.17
2022-09-09T14:49:05.927Z,8.70
2022-09-09T14:51:56.591Z,8.53
2022-09-09T14:54:45.961Z,8.50
2022-09-09T14:57:35.885Z,13.40
2022-09-09T15:03:20.209Z,12.23
2022-09-09T15:06:10.872Z,11.00
2022-09-09T15:09:02.297Z,9.60
2022-09-09T15:11:51.638Z,9.10
2022-09-09T15:14:40.947Z,8.70
2022-09-09T15:17:30.651Z,8.60
2022-09-09T15:20:20.095Z,8.50
2022-09-09T15:23:10.072Z,8.40
2022-09-09T15:26:00.757Z,8.50
2022-09-09T15:28:51.959Z,8.40
2022-09-09T15:31:41.298Z,8.60
2022-09-09T15:34:30.602Z,8.23
2022-09-09T15:37:19.930Z,8.30
2022-09-09T15:40:10.777Z,8.60
2022-09-09T15:43:01.842Z,8.53
2022-09-09T15:46:00.280Z,8.40
2022-09-09T15:48:52.326Z,10.60
2022-09-09T15:51:46.124Z,11.80
2022-09-09T15:54:37.720Z,10.20
2022-09-09T15:57:28.100Z,11.40
2022-09-09T16:00:19.325Z,10.00
2022-09-09T16:03:08.649Z,9.47
2022-09-09T16:05:58.141Z,9.17
2022-09-09T16:08:50.861Z,8.70
2022-09-09T16:11:41.395Z,8.70
2022-09-09T16:14:35.039Z,8.70
2022-09-09T16:17:25.705Z,17.70
2022-09-09T16:20:15.482Z,15.63
2022-09-09T16:23:04.838Z,12.90
2022-09-09T16:25:56.849Z,10.70
2022-09-09T16:28:47.436Z,9.87
2022-09-09T16:31:36.904Z,9.27
2022-09-09T16:34:27.826Z,9.40
2022-09-09T16:37:17.202Z,9.40
2022-09-09T16:40:08.562Z,8.67
2022-09-09T16:42:58.346Z,15.90
2022-09-09T16:45:47.815Z,12.10
2022-09-09T16:48:37.501Z,10.60
2022-09-09T16:51:31.265Z,9.50
2022-09-09T16:54:21.017Z,9.20
2022-09-09T16:57:10.495Z,9.23
2022-09-09T17:00:00.478Z,9.03
2022-09-09T17:02:49.935Z,8.90
2022-09-09T17:05:42.393Z,8.97
2022-09-09T17:08:34.392Z,10.37
2022-09-09T17:11:24.337Z,9.93
2022-09-09T17:14:17.967Z,9.53
2022-09-09T17:17:25.111Z,8.87
2022-09-09T17:20:17.080Z,8.90
2022-09-09T17:23:06.482Z,8.70
2022-09-09T17:26:01.216Z,9.00
2022-09-09T17:28:50.556Z,8.70
2022-09-09T17:31:41.755Z,9.00
2022-09-09T17:34:31.261Z,8.97
2022-09-09T17:37:20.766Z,14.13
2022-09-09T17:40:11.208Z,10.40
2022-09-09T17:43:02.426Z,10.43
2022-09-09T17:45:51.760Z,9.43
2022-09-09T17:48:44.197Z,9.33
2022-09-09T17:51:35.332Z,8.83
2022-09-09T17:54:24.759Z,8.80
2022-09-09T17:57:14.172Z,9.20
2022-09-09T18:00:08.087Z,9.20
2022-09-09T18:03:17.477Z,9.10
2022-09-09T18:06:09.928Z,9.00
2022-09-09T18:09:02.392Z,8.93
2022-09-09T18:11:54.544Z,8.77
2022-09-09T18:14:44.056Z,8.77
2022-09-09T18:17:34.751Z,8.70
2022-09-09T18:20:24.337Z,9.40
2022-09-09T18:23:14.073Z,9.50
2022-09-09T18:26:03.547Z,9.00
2022-09-09T18:28:55.418Z,9.00
2022-09-09T18:31:45.135Z,8.63
2022-09-09T18:34:36.458Z,8.90
2022-09-09T18:37:26.128Z,8.80
2022-09-09T18:40:15.797Z,8.60
2022-09-09T18:43:05.732Z,8.67
2022-09-09T18:45:55.538Z,8.90
2022-09-09T18:48:46.670Z,8.90
2022-09-09T18:51:37.934Z,9.00
2022-09-09T18:54:30.478Z,8.70
2022-09-09T18:57:20.421Z,8.70
2022-09-09T19:00:12.326Z,8.63
2022-09-09T19:03:01.781Z,8.77
2022-09-09T19:05:52.241Z,8.80
2022-09-09T19:08:46.243Z,8.67
2022-09-09T19:11:35.833Z,8.40
2022-09-09T19:14:25.487Z,8.50
2022-09-09T19:17:15.005Z,8.60
2022-09-09T19:20:05.505Z,8.50
2022-09-09T19:22:56.244Z,8.60
2022-09-09T19:25:47.206Z,8.70
2022-09-09T19:28:37.466Z,8.70
2022-09-09T19:31:28.226Z,9.07
2022-09-09T19:34:18.985Z,9.10
2022-09-09T19:37:08.361Z,9.20
2022-09-09T19:39:57.711Z,9.00
2022-09-09T19:42:48.959Z,9.33
2022-09-09T19:45:38.279Z,9.13
2022-09-09T19:48:28.787Z,9.03
2022-09-09T19:51:20.572Z,8.87
2022-09-09T19:54:13.316Z,8.80
2022-09-09T19:57:02.768Z,8.90
2022-09-09T19:59:53.528Z,8.90
2022-09-09T20:02:58.087Z,9.00
2022-09-09T20:05:53.753Z,8.87
2022-09-09T20:08:46.120Z,8.70
2022-09-09T20:11:35.519Z,8.93
2022-09-09T20:14:25.276Z,8.73
2022-09-09T20:17:16.034Z,8.70
2022-09-09T20:20:06.035Z,8.73
2022-09-09T20:22:55.675Z,8.60
2022-09-09T20:25:45.375Z,9.10
2022-09-09T20:28:35.792Z,9.23
2022-09-09T20:31:28.003Z,8.80
2022-09-09T20:34:22.171Z,8.70
2022-09-09T20:37:11.508Z,8.90
2022-09-09T20:40:02.205Z,8.97
2022-09-09T20:42:52.625Z,9.80
2022-09-09T20:45:43.814Z,9.20
2022-09-09T20:48:34.545Z,8.90
2022-09-09T20:51:26.654Z,9.43
2022-09-09T20:54:18.715Z,9.00
2022-09-09T20:57:08.554Z,9.13
2022-09-09T20:59:57.870Z,9.00
2022-09-09T21:02:48.067Z,8.60
2022-09-09T21:05:39.098Z,8.60
2022-09-09T21:08:30.894Z,8.40
2022-09-09T21:11:20.651Z,8.57
2022-09-09T21:14:10.642Z,8.40
2022-09-09T21:17:00.032Z,8.47
2022-09-09T21:19:49.338Z,8.50
2022-09-09T21:22:38.686Z,8.40
2022-09-09T21:25:29.308Z,8.40
2022-09-09T21:28:19.873Z,8.43
2022-09-09T21:31:15.014Z,8.40
2022-09-09T21:34:05.776Z,8.20
2022-09-09T21:36:55.063Z,8.30
2022-09-09T21:39:44.418Z,8.50
2022-09-09T21:42:35.111Z,8.60
2022-09-09T21:45:25.425Z,8.40
2022-09-09T21:48:17.617Z,8.40
2022-09-09T21:51:10.145Z,8.47
2022-09-09T21:53:59.544Z,8.50
2022-09-09T21:56:51.825Z,8.40
2022-09-09T21:59:42.498Z,8.50
2022-09-09T22:02:31.895Z,8.50
2022-09-09T22:05:21.229Z,8.40
2022-09-09T22:08:11.757Z,8.23
2022-09-09T22:11:08.903Z,8.40
2022-09-09T22:13:58.264Z,8.60
2022-09-09T22:16:48.920Z,8.40
2022-09-09T22:19:38.225Z,8.50
2022-09-09T22:22:27.837Z,8.57
2022-09-09T22:25:17.270Z,8.53
2022-09-09T22:28:09.621Z,8.40
2022-09-09T22:30:59.037Z,8.60
2022-09-09T22:33:50.571Z,8.80
2022-09-09T22:36:39.888Z,8.60
2022-09-09T22:39:29.429Z,8.97
2022-09-09T22:42:19.309Z,8.80
2022-09-09T22:45:10.295Z,8.60
2022-09-09T22:48:00.486Z,8.77
2022-09-09T22:50:51.353Z,8.60
2022-09-09T22:53:42.215Z,8.57
2022-09-09T22:56:31.540Z,8.57
2022-09-09T22:59:22.313Z,8.80
2022-09-09T23:02:12.354Z,8.70
2022-09-09T23:05:04.429Z,8.60
2022-09-09T23:07:58.479Z,8.40
2022-09-09T23:10:48.807Z,8.40
2022-09-09T23:13:39.966Z,8.60
2022-09-09T23:16:32.957Z,8.60
2022-09-09T23:19:22.256Z,8.37
2022-09-09T23:22:12.227Z,8.37
2022-09-09T23:25:04.012Z,8.47
2022-09-09T23:27:53.451Z,8.50
2022-09-09T23:30:43.633Z,8.97
2022-09-09T23:33:32.932Z,8.50
2022-09-09T23:36:25.788Z,8.50
2022-09-09T23:39:15.192Z,8.40
2022-09-09T23:42:08.107Z,8.67
2022-09-09T23:44:57.474Z,9.10
2022-09-09T23:47:46.745Z,8.50
2022-09-09T23:50:36.957Z,8.37
2022-09-09T23:53:26.680Z,8.30
2022-09-09T23:56:15.957Z,8.40
2022-09-09T23:59:07.627Z,8.47
